Time;durP1;ratioP1;P1;durP2;ratioP2;P2;SDS_P1;SDS_P2;PMS_P1;PMS_P2;Temp;Humidity;BMP_temperature;BMP_pressure;BME280_temperature;BME280_humidity;BME280_pressure;Samples;Min_cycle;Max_cycle;Signal;HPM_P1;HPM_P2
2021/06/16 00:02:05;;;;;;;7.33;5.40;;;17.10;99.90;;;;;;5098680;28;20478;-65
2021/06/16 00:04:32;;;;;;;5.60;5.00;;;16.90;99.90;;;;;;5092448;28;20458;-66
2021/06/16 00:07:00;;;;;;;6.30;5.00;;;16.80;99.90;;;;;;5092258;28;20525;-66
2021/06/16 00:09:27;;;;;;;7.93;5.10;;;16.70;99.90;;;;;;5091803;28;20442;-65
2021/06/16 00:11:54;;;;;;;9.07;4.87;;;16.70;99.90;;;;;;5092607;28;20901;-66
2021/06/16 00:14:22;;;;;;;6.97;6.27;;;16.60;99.90;;;;;;5091924;28;20888;-65
2021/06/16 00:16:49;;;;;;;6.80;5.23;;;16.50;99.90;;;;;;5091232;28;20454;-66
2021/06/16 00:19:17;;;;;;;7.23;5.77;;;16.50;99.90;;;;;;5091601;28;20565;-66
2021/06/16 00:21:44;;;;;;;9.33;5.70;;;16.60;99.90;;;;;;5091641;28;20565;-66
2021/06/16 00:24:11;;;;;;;7.03;5.70;;;16.60;99.90;;;;;;5092304;28;20504;-65
2021/06/16 00:26:38;;;;;;;8.53;6.23;;;16.60;99.90;;;;;;5091823;28;20449;-66
2021/06/16 00:29:05;;;;;;;7.57;5.80;;;16.70;99.90;;;;;;5091235;28;21035;-66
2021/06/16 00:31:34;;;;;;;6.97;5.57;;;16.70;99.90;;;;;;5092028;28;20470;-66
2021/06/16 00:34:00;;;;;;;8.10;5.07;;;16.60;99.90;;;;;;5091823;28;20521;-66
2021/06/16 00:36:28;;;;;;;8.93;5.90;;;16.60;99.90;;;;;;5091768;28;20438;-65
2021/06/16 00:38:55;;;;;;;5.47;4.97;;;16.60;99.90;;;;;;5092131;28;20516;-66
2021/06/16 00:41:22;;;;;;;6.80;5.60;;;16.50;99.90;;;;;;5091591;28;20814;-65
2021/06/16 00:43:49;;;;;;;8.87;6.07;;;16.40;99.90;;;;;;5092098;28;20513;-65
2021/06/16 00:46:15;;;;;;;8.63;5.10;;;16.40;99.90;;;;;;5091700;28;20485;-66
2021/06/16 00:48:44;;;;;;;6.33;5.73;;;16.40;99.90;;;;;;5092168;28;20799;-66
2021/06/16 00:51:11;;;;;;;10.03;6.20;;;16.30;99.90;;;;;;5091184;28;20524;-65
2021/06/16 00:53:38;;;;;;;8.33;5.70;;;16.20;99.90;;;;;;5091907;28;20445;-65
2021/06/16 00:56:05;;;;;;;6.97;6.20;;;16.20;99.90;;;;;;5091613;28;20554;-66
2021/06/16 00:58:32;;;;;;;6.50;5.37;;;16.20;99.90;;;;;;5091642;28;20489;-66
2021/06/16 01:01:03;;;;;;;6.17;5.17;;;16.30;99.90;;;;;;5091078;28;20487;-65
2021/06/16 01:03:36;;;;;;;8.40;6.20;;;16.20;99.90;;;;;;5091826;28;20573;-66
2021/06/16 01:06:09;;;;;;;7.47;5.90;;;16.20;99.90;;;;;;5091024;28;20548;-66
2021/06/16 01:08:40;;;;;;;5.90;5.30;;;16.20;99.90;;;;;;5091754;28;20470;-65
2021/06/16 01:11:10;;;;;;;8.97;5.90;;;16.20;99.90;;;;;;5090809;28;20440;-65
2021/06/16 01:13:46;;;;;;;7.17;6.20;;;16.20;99.90;;;;;;5091524;28;20436;-65
2021/06/16 01:16:20;;;;;;;6.03;5.40;;;16.20;99.90;;;;;;5091102;28;20553;-66
2021/06/16 01:18:49;;;;;;;7.93;4.90;;;16.20;99.90;;;;;;5091301;28;20520;-66
2021/06/16 01:21:18;;;;;;;7.63;4.70;;;16.20;99.90;;;;;;5090366;28;20517;-65
2021/06/16 01:24:02;;;;;;;6.43;5.73;;;16.20;99.90;;;;;;5091301;28;20553;-66
2021/06/16 01:26:33;;;;;;;6.50;5.50;;;16.20;99.90;;;;;;5091181;28;20511;-66
2021/06/16 01:29:04;;;;;;;8.03;5.70;;;16.10;99.90;;;;;;5090661;28;20517;-66
2021/06/16 01:31:32;;;;;;;5.73;5.10;;;16.10;99.90;;;;;;5091169;28;20445;-66
2021/06/16 01:34:01;;;;;;;8.27;6.03;;;16.10;99.90;;;;;;5091645;28;20435;-66
2021/06/16 01:36:29;;;;;;;6.37;5.43;;;16.00;99.90;;;;;;5091424;28;20559;-67
2021/06/16 01:38:56;;;;;;;7.13;6.30;;;15.90;99.90;;;;;;5091522;28;20446;-66
2021/06/16 01:41:23;;;;;;;9.73;6.30;;;15.90;99.90;;;;;;5091366;28;20454;-65
2021/06/16 01:43:55;;;;;;;6.30;5.60;;;15.90;99.90;;;;;;5091348;28;20474;-66
2021/06/16 01:46:24;;;;;;;6.73;5.40;;;15.90;99.90;;;;;;5091249;28;20811;-66
2021/06/16 01:48:52;;;;;;;8.43;5.90;;;15.90;99.90;;;;;;5091514;28;20521;-65
2021/06/16 01:51:20;;;;;;;5.70;5.13;;;15.80;99.90;;;;;;5090958;28;20450;-66
2021/06/16 01:53:49;;;;;;;7.47;6.17;;;15.80;99.90;;;;;;5091269;28;20434;-65
2021/06/16 01:56:18;;;;;;;7.23;5.70;;;15.70;99.90;;;;;;5090723;28;20462;-65
2021/06/16 01:58:46;;;;;;;6.90;6.20;;;15.70;99.90;;;;;;5091536;28;20469;-65
2021/06/16 02:01:15;;;;;;;9.17;6.00;;;15.70;99.90;;;;;;5090265;28;21001;-66
2021/06/16 02:03:43;;;;;;;7.90;6.30;;;15.70;99.90;;;;;;5091436;28;20573;-65
2021/06/16 02:06:10;;;;;;;6.83;5.40;;;15.60;99.90;;;;;;5090673;28;20537;-66
2021/06/16 02:08:38;;;;;;;7.90;5.90;;;15.60;99.90;;;;;;5090388;28;20434;-66
2021/06/16 02:11:06;;;;;;;6.53;5.83;;;15.70;99.90;;;;;;5089658;28;20446;-67
2021/06/16 02:13:37;;;;;;;6.80;5.90;;;15.60;99.90;;;;;;5090588;28;20868;-66
2021/06/16 02:16:08;;;;;;;7.57;6.00;;;15.70;99.90;;;;;;5090138;28;20470;-65
2021/06/16 02:18:44;;;;;;;9.37;6.43;;;15.70;99.90;;;;;;5090401;28;20465;-66
2021/06/16 02:21:11;;;;;;;7.20;6.13;;;15.70;99.90;;;;;;5089676;28;20805;-66
2021/06/16 02:23:38;;;;;;;7.10;6.30;;;15.70;99.90;;;;;;5090110;28;20478;-66
2021/06/16 02:26:05;;;;;;;7.67;6.10;;;15.70;99.90;;;;;;5089898;28;20897;-65
2021/06/16 02:28:32;;;;;;;7.40;6.77;;;15.70;99.90;;;;;;5090298;28;20529;-66
2021/06/16 02:30:59;;;;;;;7.50;6.70;;;15.70;99.90;;;;;;5089441;28;20481;-66
2021/06/16 02:33:26;;;;;;;8.43;6.90;;;15.60;99.90;;;;;;5091709;28;20432;-66
2021/06/16 02:35:55;;;;;;;7.63;6.30;;;15.70;99.90;;;;;;5094156;28;20516;-66
2021/06/16 02:38:23;;;;;;;9.80;6.93;;;15.70;99.90;;;;;;5094185;28;20950;-66
2021/06/16 02:40:51;;;;;;;8.80;5.90;;;15.70;99.90;;;;;;5093672;28;20537;-66
2021/06/16 02:43:21;;;;;;;7.07;6.10;;;15.70;99.90;;;;;;5094304;28;20484;-66
2021/06/16 02:45:49;;;;;;;7.50;6.70;;;15.60;99.90;;;;;;5094007;28;20450;-65
2021/06/16 02:48:18;;;;;;;7.80;7.00;;;15.60;99.90;;;;;;5093934;28;20946;-66
2021/06/16 02:50:46;;;;;;;8.80;7.90;;;15.60;99.90;;;;;;5093096;28;20438;-66
2021/06/16 02:53:18;;;;;;;7.73;6.77;;;15.60;99.90;;;;;;5094035;28;20545;-66
2021/06/16 02:55:48;;;;;;;8.33;6.77;;;15.60;99.90;;;;;;5094212;28;20568;-65
2021/06/16 02:58:17;;;;;;;7.67;6.90;;;15.60;99.90;;;;;;5093708;28;20528;-66
2021/06/16 03:00:45;;;;;;;8.10;6.53;;;15.50;99.90;;;;;;5093069;28;20457;-66
2021/06/16 03:03:13;;;;;;;7.17;6.47;;;15.50;99.90;;;;;;5093742;28;20469;-65
2021/06/16 03:05:41;;;;;;;8.53;6.53;;;15.40;99.90;;;;;;5094152;28;20556;-66
2021/06/16 03:08:09;;;;;;;9.10;6.70;;;15.40;99.90;;;;;;5093333;28;20441;-66
2021/06/16 03:10:39;;;;;;;9.30;7.33;;;15.40;99.90;;;;;;5092974;28;20525;-65
2021/06/16 03:13:06;;;;;;;11.40;8.00;;;15.50;99.90;;;;;;5093679;28;20442;-66
2021/06/16 03:15:35;;;;;;;7.63;6.60;;;15.40;99.90;;;;;;5093791;28;20532;-65
2021/06/16 03:18:02;;;;;;;8.20;7.20;;;15.30;99.90;;;;;;5093080;28;20445;-67
2021/06/16 03:20:32;;;;;;;9.83;6.87;;;15.20;99.90;;;;;;5093309;28;20473;-66
2021/06/16 03:23:00;;;;;;;7.70;6.40;;;15.20;99.90;;;;;;5093662;28;20474;-66
2021/06/16 03:25:28;;;;;;;11.10;7.23;;;15.20;99.90;;;;;;5093610;28;20537;-66
2021/06/16 03:27:57;;;;;;;9.33;6.97;;;15.20;99.90;;;;;;5093815;28;20542;-65
2021/06/16 03:30:25;;;;;;;7.40;6.57;;;15.10;99.90;;;;;;5093252;28;20919;-66
2021/06/16 03:32:54;;;;;;;9.80;7.80;;;15.10;99.90;;;;;;5093628;28;20509;-65
2021/06/16 03:35:22;;;;;;;7.40;6.30;;;15.10;99.90;;;;;;5093494;28;20466;-65
2021/06/16 03:37:50;;;;;;;8.57;7.40;;;15.10;99.90;;;;;;5093070;28;20449;-65
2021/06/16 03:40:18;;;;;;;7.80;6.60;;;15.20;99.90;;;;;;5092509;28;20442;-66
2021/06/16 03:42:48;;;;;;;8.57;7.07;;;15.10;99.90;;;;;;5092927;28;20581;-66
2021/06/16 03:45:17;;;;;;;7.90;7.00;;;15.00;99.90;;;;;;5092507;28;20497;-67
2021/06/16 03:47:46;;;;;;;10.40;7.63;;;15.10;99.90;;;;;;5092603;28;20442;-67
2021/06/16 03:50:17;;;;;;;8.10;6.90;;;15.10;99.90;;;;;;5092244;28;20499;-66
2021/06/16 03:52:45;;;;;;;7.67;6.43;;;15.20;99.90;;;;;;5092782;28;20526;-66
2021/06/16 03:55:13;;;;;;;9.17;6.70;;;15.20;99.90;;;;;;5092884;28;20454;-65
2021/06/16 03:57:41;;;;;;;7.47;6.17;;;15.20;99.90;;;;;;5092860;28;20438;-67
2021/06/16 04:00:10;;;;;;;8.87;6.47;;;15.30;99.90;;;;;;5091798;28;21122;-65
2021/06/16 04:02:39;;;;;;;8.67;6.53;;;15.30;99.90;;;;;;5092934;28;20517;-65
2021/06/16 04:05:09;;;;;;;7.13;6.43;;;15.30;99.90;;;;;;5092894;28;20486;-66
2021/06/16 04:07:36;;;;;;;9.30;6.47;;;15.40;99.90;;;;;;5091975;28;20948;-67
2021/06/16 04:10:07;;;;;;;7.73;6.70;;;15.50;99.90;;;;;;5092096;28;20525;-65
2021/06/16 04:12:34;;;;;;;11.40;7.77;;;15.60;99.90;;;;;;5092849;28;20442;-66
2021/06/16 04:15:02;;;;;;;8.50;6.77;;;15.70;99.90;;;;;;5092320;28;20494;-66
2021/06/16 04:17:29;;;;;;;10.20;6.80;;;15.80;99.90;;;;;;5098942;28;20834;-65
2021/06/16 04:19:57;;;;;;;10.13;6.47;;;15.80;99.90;;;;;;5109824;28;20520;-64
2021/06/16 04:22:24;;;;;;;9.20;7.20;;;15.90;99.90;;;;;;5110843;28;20521;-65
2021/06/16 04:24:51;;;;;;;7.83;6.17;;;15.90;99.90;;;;;;5092223;28;20561;-65
2021/06/16 04:27:18;;;;;;;8.70;6.90;;;16.00;99.90;;;;;;5091847;28;20875;-65
2021/06/16 04:29:45;;;;;;;10.17;6.80;;;16.10;99.90;;;;;;5091331;28;20430;-64
2021/06/16 04:32:12;;;;;;;8.40;6.73;;;16.20;99.90;;;;;;5092724;28;20805;-65
2021/06/16 04:34:40;;;;;;;6.93;6.23;;;16.30;99.90;;;;;;5092962;28;20481;-64
2021/06/16 04:37:09;;;;;;;11.30;7.13;;;16.40;99.90;;;;;;5093061;28;20466;-66
2021/06/16 04:39:36;;;;;;;7.20;6.47;;;16.40;99.90;;;;;;5092903;28;20434;-66
2021/06/16 04:42:04;;;;;;;10.73;5.83;;;16.50;99.90;;;;;;5092280;28;20870;-65
2021/06/16 04:44:30;;;;;;;7.57;5.80;;;16.60;99.90;;;;;;5093067;28;20572;-61
2021/06/16 04:46:57;;;;;;;8.83;6.27;;;16.70;99.90;;;;;;5092670;28;20866;-63
2021/06/16 04:49:24;;;;;;;8.40;6.70;;;16.70;99.90;;;;;;5091716;28;20478;-62
2021/06/16 04:51:53;;;;;;;8.03;6.07;;;16.80;99.90;;;;;;5091911;28;20818;-63
2021/06/16 04:54:21;;;;;;;7.90;7.10;;;16.90;99.90;;;;;;5092251;28;20844;-63
2021/06/16 04:56:48;;;;;;;8.20;7.27;;;17.00;99.90;;;;;;5089478;28;20438;-63
2021/06/16 04:59:15;;;;;;;7.40;6.17;;;17.00;99.90;;;;;;5086592;28;20490;-68
2021/06/16 05:01:42;;;;;;;10.73;7.40;;;17.00;99.90;;;;;;5082868;28;20938;-62
2021/06/16 05:04:09;;;;;;;10.63;6.97;;;17.00;99.90;;;;;;5086167;28;20577;-64
2021/06/16 05:06:36;;;;;;;8.60;6.80;;;17.00;99.90;;;;;;5085152;28;20530;-63
2021/06/16 05:09:03;;;;;;;7.67;6.67;;;17.00;99.90;;;;;;5085271;28;20454;-64
2021/06/16 05:11:31;;;;;;;8.43;6.87;;;17.10;99.90;;;;;;5088078;28;20439;-64
2021/06/16 05:13:58;;;;;;;8.57;6.80;;;17.20;99.90;;;;;;5090026;28;20977;-63
2021/06/16 05:16:25;;;;;;;8.50;7.60;;;17.20;99.90;;;;;;5090890;28;20478;-64
2021/06/16 05:18:52;;;;;;;7.70;6.43;;;17.20;99.90;;;;;;5089368;28;20438;-64
2021/06/16 05:21:19;;;;;;;8.40;6.23;;;17.20;99.90;;;;;;5089252;28;20457;-63
2021/06/16 05:23:48;;;;;;;7.47;6.73;;;17.30;99.90;;;;;;5090940;28;20580;-63
2021/06/16 05:26:15;;;;;;;11.80;7.47;;;17.40;99.90;;;;;;5090107;28;20469;-64
2021/06/16 05:28:43;;;;;;;11.30;7.70;;;17.50;99.90;;;;;;5090682;28;20920;-63
2021/06/16 05:31:11;;;;;;;9.87;6.63;;;17.60;99.90;;;;;;5090533;28;20994;-63
2021/06/16 05:33:38;;;;;;;9.30;6.70;;;17.60;99.90;;;;;;5091178;28;20466;-64
2021/06/16 05:36:06;;;;;;;8.10;7.30;;;17.70;99.90;;;;;;5090576;28;20453;-64
2021/06/16 05:38:35;;;;;;;9.33;6.17;;;17.70;99.90;;;;;;5090754;28;20441;-63
2021/06/16 05:41:02;;;;;;;11.20;7.53;;;17.80;99.90;;;;;;5089782;28;21088;-63
2021/06/16 05:43:29;;;;;;;9.33;6.70;;;17.90;99.90;;;;;;5090429;28;20549;-61
2021/06/16 05:45:57;;;;;;;6.93;6.23;;;18.00;99.90;;;;;;5090494;28;20541;-64
2021/06/16 05:48:24;;;;;;;7.70;6.93;;;18.10;99.90;;;;;;5090664;28;20449;-63
2021/06/16 05:50:51;;;;;;;10.97;6.70;;;18.30;99.90;;;;;;5089830;28;20441;-62
2021/06/16 05:53:17;;;;;;;8.60;7.20;;;18.40;99.90;;;;;;5090644;28;20434;-63
2021/06/16 05:55:44;;;;;;;8.87;7.47;;;18.60;99.90;;;;;;5090331;28;20487;-63
2021/06/16 05:58:11;;;;;;;8.10;7.03;;;18.70;99.90;;;;;;5089919;28;20532;-63
2021/06/16 06:00:38;;;;;;;7.60;6.50;;;18.90;99.90;;;;;;5089726;28;20535;-63
2021/06/16 06:03:07;;;;;;;8.30;6.10;;;19.10;99.90;;;;;;5090343;28;20442;-63
2021/06/16 06:05:34;;;;;;;6.20;5.37;;;19.30;99.90;;;;;;5090123;28;20594;-63
2021/06/16 06:08:01;;;;;;;9.77;6.40;;;19.40;99.90;;;;;;5089463;28;20444;-63
2021/06/16 06:10:28;;;;;;;6.87;5.77;;;19.50;99.90;;;;;;5089422;28;20436;-63
2021/06/16 06:12:55;;;;;;;6.83;6.13;;;19.70;99.90;;;;;;5090622;28;20537;-63
2021/06/16 06:15:22;;;;;;;5.67;4.90;;;19.80;99.90;;;;;;5090607;28;20450;-63
2021/06/16 06:17:50;;;;;;;6.40;5.80;;;19.80;99.90;;;;;;5089907;28;20452;-63
2021/06/16 06:20:19;;;;;;;5.97;5.37;;;20.00;99.90;;;;;;5088050;28;20437;-64
2021/06/16 06:22:46;;;;;;;7.23;5.60;;;20.10;99.90;;;;;;5089981;28;20517;-64
2021/06/16 06:25:13;;;;;;;7.60;6.90;;;20.20;99.90;;;;;;5089723;28;20489;-64
2021/06/16 06:27:41;;;;;;;7.30;5.87;;;20.30;99.90;;;;;;5089783;28;20528;-67
2021/06/16 06:30:09;;;;;;;7.50;5.80;;;20.40;99.90;;;;;;5089180;28;20528;-65
2021/06/16 06:32:36;;;;;;;7.30;5.70;;;20.60;99.90;;;;;;5089952;28;20886;-64
2021/06/16 06:35:04;;;;;;;7.47;4.87;;;20.70;99.90;;;;;;5090249;28;21018;-64
2021/06/16 06:37:32;;;;;;;6.40;5.33;;;20.80;99.90;;;;;;5089387;28;20529;-64
2021/06/16 06:39:59;;;;;;;6.23;5.50;;;21.00;99.90;;;;;;5088946;28;20464;-62
2021/06/16 06:42:26;;;;;;;5.80;5.20;;;21.10;99.90;;;;;;5090043;28;20524;-64
2021/06/16 06:44:53;;;;;;;5.40;4.80;;;21.20;99.90;;;;;;5089990;28;20603;-63
2021/06/16 06:47:21;;;;;;;7.30;5.80;;;21.30;99.90;;;;;;5089318;28;20442;-63
2021/06/16 06:49:48;;;;;;;7.80;5.60;;;21.50;99.90;;;;;;5089049;28;20438;-63
2021/06/16 06:52:15;;;;;;;7.23;6.10;;;21.60;99.90;;;;;;5089595;28;20487;-63
2021/06/16 06:54:43;;;;;;;13.97;6.10;;;21.70;99.90;;;;;;5089503;28;20978;-63
2021/06/16 06:57:10;;;;;;;7.40;5.87;;;21.90;99.90;;;;;;5089235;28;20465;-63
2021/06/16 06:59:37;;;;;;;7.53;6.03;;;22.00;99.90;;;;;;5088850;28;20445;-63
2021/06/16 07:02:04;;;;;;;9.23;4.97;;;22.20;99.90;;;;;;5089532;28;20496;-63
2021/06/16 07:04:31;;;;;;;7.83;6.50;;;22.30;99.90;;;;;;5089727;28;20915;-64
2021/06/16 07:06:58;;;;;;;7.07;5.97;;;22.50;99.90;;;;;;5089808;28;20478;-64
2021/06/16 07:09:26;;;;;;;11.63;6.50;;;22.60;99.90;;;;;;5089329;28;20446;-64
2021/06/16 07:11:54;;;;;;;7.40;5.83;;;22.70;99.90;;;;;;5090307;28;20527;-64
2021/06/16 07:14:21;;;;;;;8.20;5.20;;;22.80;99.90;;;;;;5090164;28;20517;-63
2021/06/16 07:16:48;;;;;;;15.47;7.27;;;22.90;99.90;;;;;;5089894;28;20446;-63
2021/06/16 07:19:15;;;;;;;6.70;5.50;;;23.10;99.90;;;;;;5089274;28;20812;-64
2021/06/16 07:21:42;;;;;;;5.40;4.67;;;23.30;99.90;;;;;;5093323;28;21012;-63
2021/06/16 07:24:10;;;;;;;6.07;4.93;;;23.30;99.90;;;;;;5093535;28;20528;-64
2021/06/16 07:26:37;;;;;;;6.03;5.07;;;23.50;99.90;;;;;;5087165;28;20542;-67
2021/06/16 07:29:05;;;;;;;6.27;4.80;;;23.70;99.90;;;;;;5083077;28;20445;-64
2021/06/16 07:31:32;;;;;;;6.80;4.80;;;23.80;99.90;;;;;;5079526;28;20524;-64
2021/06/16 07:33:59;;;;;;;5.60;4.30;;;24.00;99.90;;;;;;5087884;28;20457;-64
2021/06/16 07:36:26;;;;;;;6.70;5.07;;;24.20;99.90;;;;;;5085321;28;20442;-64
2021/06/16 07:38:52;;;;;;;6.13;4.43;;;24.30;99.90;;;;;;5083123;28;20872;-64
2021/06/16 07:41:19;;;;;;;8.47;5.20;;;24.40;99.90;;;;;;5081024;28;20621;-64
2021/06/16 07:43:46;;;;;;;5.03;4.00;;;24.40;99.90;;;;;;5094330;22;20552;-67
2021/06/16 07:46:15;;;;;;;6.77;4.40;;;24.40;99.90;;;;;;5088749;28;20439;-67
2021/06/16 07:48:41;;;;;;;6.00;5.20;;;24.60;99.90;;;;;;5093060;28;20529;-66
2021/06/16 07:51:09;;;;;;;6.70;4.73;;;24.70;99.90;;;;;;5091833;28;20478;-67
2021/06/16 07:53:36;;;;;;;6.17;4.33;;;24.80;99.90;;;;;;5090054;28;20975;-67
2021/06/16 07:56:03;;;;;;;5.67;4.20;;;24.90;99.90;;;;;;5071879;28;20486;-67
2021/06/16 07:58:30;;;;;;;4.43;3.60;;;25.00;99.90;;;;;;5072398;28;20475;-67
2021/06/16 08:00:56;;;;;;;7.22;4.38;;;25.10;99.90;;;;;;5071163;28;20405;-66
2021/06/16 08:03:25;;;;;;;5.83;4.23;;;25.30;99.90;;;;;;5071466;28;20729;-67
2021/06/16 08:05:52;;;;;;;5.60;4.73;;;25.30;99.90;;;;;;5072018;28;20479;-65
2021/06/16 08:08:19;;;;;;;7.90;5.27;;;25.50;99.90;;;;;;5072598;28;20485;-66
2021/06/16 08:10:46;;;;;;;9.37;4.90;;;25.30;99.90;;;;;;5071378;28;20884;-67
2021/06/16 08:13:13;;;;;;;5.23;4.73;;;25.20;99.90;;;;;;5072035;28;20676;-67
2021/06/16 08:15:40;;;;;;;8.00;4.50;;;25.20;99.90;;;;;;5072466;28;20516;-67
2021/06/16 08:18:08;;;;;;;5.30;4.80;;;25.40;99.90;;;;;;5071599;28;20431;-67
2021/06/16 08:20:36;;;;;;;8.83;4.77;;;25.60;99.90;;;;;;5071338;28;20447;-66
2021/06/16 08:23:06;;;;;;;6.63;5.27;;;25.80;99.90;;;;;;5071653;28;20940;-67
2021/06/16 08:25:33;;;;;;;7.00;4.33;;;26.00;99.90;;;;;;5072371;28;20483;-67
2021/06/16 08:28:00;;;;;;;6.50;4.10;;;26.00;99.90;;;;;;5071243;28;20485;-67
2021/06/16 08:30:27;;;;;;;6.10;4.87;;;26.10;99.90;;;;;;5070672;28;21032;-66
2021/06/16 08:32:53;;;;;;;6.77;4.50;;;26.20;99.90;;;;;;5071574;28;20530;-66
2021/06/16 08:35:20;;;;;;;5.50;4.50;;;26.20;99.80;;;;;;5060431;28;20930;-65
2021/06/16 08:37:49;;;;;;;6.03;4.77;;;26.40;99.90;;;;;;5058323;28;20476;-64
2021/06/16 08:40:17;;;;;;;7.13;5.20;;;26.50;99.50;;;;;;5059283;28;20484;-65
2021/06/16 08:42:46;;;;;;;6.23;5.10;;;26.60;99.90;;;;;;5062418;28;20892;-66
2021/06/16 08:45:15;;;;;;;7.33;4.57;;;26.80;99.90;;;;;;5071061;28;20584;-66
2021/06/16 08:47:42;;;;;;;5.37;4.10;;;26.90;98.80;;;;;;5070912;28;20438;-65
2021/06/16 08:50:11;;;;;;;5.27;4.67;;;27.10;99.90;;;;;;5064201;28;20971;-65
2021/06/16 08:52:38;;;;;;;10.90;4.53;;;27.30;99.90;;;;;;5078235;28;20494;-65
2021/06/16 08:55:10;;;;;;;9.47;4.57;;;27.50;98.70;;;;;;5089802;28;20895;-65
2021/06/16 08:57:38;;;;;;;6.77;4.50;;;27.60;98.80;;;;;;5089205;28;20486;-64
2021/06/16 09:00:08;;;;;;;5.80;3.90;;;27.70;97.70;;;;;;5088971;28;20503;-65
2021/06/16 09:02:36;;;;;;;7.13;4.70;;;27.80;99.10;;;;;;5066966;28;20463;-66
2021/06/16 09:05:04;;;;;;;6.00;4.40;;;27.90;96.40;;;;;;5058623;28;20463;-66
2021/06/16 09:07:33;;;;;;;5.90;3.60;;;27.90;95.90;;;;;;5058366;28;20516;-66
2021/06/16 09:10:10;;;;;;;6.43;4.10;;;28.00;97.30;;;;;;5056905;28;20448;-66
2021/06/16 09:12:43;;;;;;;7.37;4.57;;;28.20;98.00;;;;;;5053310;28;20509;-63
2021/06/16 09:15:15;;;;;;;7.77;4.47;;;28.30;96.80;;;;;;5048871;28;20456;-66
2021/06/16 09:17:43;;;;;;;7.57;4.93;;;28.30;94.70;;;;;;5048627;28;20848;-67
2021/06/16 09:20:11;;;;;;;6.00;4.20;;;28.20;94.50;;;;;;5047793;28;20499;-67
2021/06/16 09:22:40;;;;;;;5.53;4.20;;;28.20;96.90;;;;;;5048746;28;20498;-66
2021/06/16 09:25:10;;;;;;;8.20;4.40;;;28.30;95.60;;;;;;5048387;28;20884;-66
2021/06/16 09:27:40;;;;;;;7.10;4.10;;;28.50;93.80;;;;;;5048238;28;20500;-67
2021/06/16 09:30:32;;;;;;;10.47;4.53;;;28.60;93.60;;;;;;5047267;28;20451;-66
2021/06/16 09:33:05;;;;;;;4.73;3.90;;;28.80;94.60;;;;;;5048634;28;20472;-66
2021/06/16 09:35:34;;;;;;;4.20;3.80;;;29.00;93.30;;;;;;5048343;28;20550;-66
2021/06/16 09:38:03;;;;;;;4.80;4.30;;;29.30;93.70;;;;;;5048301;28;20742;-65
2021/06/16 09:40:32;;;;;;;5.90;4.10;;;29.60;94.80;;;;;;5047464;28;20886;-66
2021/06/16 09:43:01;;;;;;;7.33;4.47;;;29.80;93.50;;;;;;5047773;28;20484;-66
2021/06/16 09:45:29;;;;;;;5.47;4.13;;;29.90;92.50;;;;;;5047860;28;20708;-67
2021/06/16 09:47:56;;;;;;;5.33;4.83;;;30.20;92.30;;;;;;5047562;28;20460;-66
2021/06/16 09:50:24;;;;;;;7.20;3.83;;;30.50;94.30;;;;;;5047385;28;20436;-66
2021/06/16 09:52:52;;;;;;;4.30;3.70;;;30.70;91.20;;;;;;5048059;28;20452;-67
2021/06/16 09:55:28;;;;;;;6.23;4.23;;;30.50;87.10;;;;;;5047558;28;20878;-65
2021/06/16 09:58:01;;;;;;;4.73;3.83;;;30.40;90.10;;;;;;5047561;28;20558;-64
2021/06/16 10:00:30;;;;;;;6.57;3.60;;;30.60;90.90;;;;;;5046984;28;20523;-64
2021/06/16 10:03:11;;;;;;;6.20;4.40;;;31.00;88.10;;;;;;5047724;28;20567;-65
2021/06/16 10:06:07;;;;;;;6.20;3.83;;;31.80;90.00;;;;;;5047771;28;20468;-66
2021/06/16 10:08:36;;;;;;;4.67;3.57;;;32.70;84.20;;;;;;5047620;28;21026;-66
2021/06/16 10:11:04;;;;;;;4.30;3.30;;;33.30;81.50;;;;;;5046600;28;20455;-66
2021/06/16 10:13:33;;;;;;;5.67;3.53;;;33.90;77.60;;;;;;5047394;28;20472;-65
2021/06/16 10:16:01;;;;;;;5.67;3.60;;;34.40;74.60;;;;;;5047660;28;20545;-66
2021/06/16 10:18:30;;;;;;;4.10;3.57;;;34.90;72.80;;;;;;5047915;28;20464;-66
2021/06/16 10:20:58;;;;;;;4.10;3.53;;;35.10;71.70;;;;;;5046912;28;20460;-69
2021/06/16 10:23:25;;;;;;;4.63;3.30;;;35.50;69.40;;;;;;5049006;28;20502;-66
2021/06/16 10:25:59;;;;;;;4.27;3.17;;;35.50;66.60;;;;;;5049328;28;21031;-65
2021/06/16 10:28:36;;;;;;;6.13;3.27;;;35.80;67.80;;;;;;5048903;28;20452;-66
2021/06/16 10:31:06;;;;;;;4.13;2.80;;;36.10;63.70;;;;;;5050687;28;20448;-67
2021/06/16 10:33:35;;;;;;;3.70;3.30;;;36.20;59.60;;;;;;5056523;28;20485;-67
2021/06/16 10:36:14;;;;;;;3.73;2.50;;;36.20;63.90;;;;;;5055873;28;20440;-65
2021/06/16 10:38:43;;;;;;;3.33;2.73;;;36.20;60.20;;;;;;5056987;28;20448;-66
2021/06/16 10:41:11;;;;;;;4.00;3.20;;;36.30;58.70;;;;;;5053651;28;20488;-67
2021/06/16 10:43:40;;;;;;;4.27;2.90;;;36.20;64.10;;;;;;5047862;28;20537;-66
2021/06/16 10:46:16;;;;;;;4.93;3.57;;;36.40;62.30;;;;;;5067742;28;20510;-66
2021/06/16 10:49:04;;;;;;;5.30;3.47;;;36.40;59.20;;;;;;5069447;28;20811;-66
2021/06/16 10:51:42;;;;;;;4.30;3.20;;;36.70;59.10;;;;;;5064250;28;20524;-65
2021/06/16 10:54:19;;;;;;;3.63;3.03;;;36.90;55.20;;;;;;5070652;28;20522;-66
2021/06/16 10:56:49;;;;;;;4.60;3.53;;;36.40;55.00;;;;;;5072933;28;20470;-65
2021/06/16 11:00:00;;;;;;;4.87;3.50;;;36.20;60.10;;;;;;5072779;28;20834;-65
2021/06/16 11:03:03;;;;;;;3.27;2.97;;;36.00;56.50;;;;;;5073354;28;20443;-65
2021/06/16 11:05:46;;;;;;;4.43;3.10;;;36.40;57.80;;;;;;5069580;28;20850;-66
2021/06/16 11:08:53;;;;;;;4.00;3.50;;;36.60;54.40;;;;;;5060995;28;20443;-66
2021/06/16 11:11:23;;;;;;;3.80;3.00;;;36.90;56.50;;;;;;5061515;28;20519;-66
2021/06/16 11:13:50;;;;;;;3.60;3.30;;;37.10;56.00;;;;;;5061786;28;20555;-67
2021/06/16 11:16:53;;;;;;;4.57;3.17;;;37.40;54.10;;;;;;5063442;28;20490;-66
2021/06/16 11:19:30;;;;;;;5.80;3.10;;;37.20;52.70;;;;;;5060900;28;20459;-65
2021/06/16 11:21:59;;;;;;;4.20;3.40;;;37.10;53.50;;;;;;5061192;28;20446;-66
2021/06/16 11:25:03;;;;;;;3.40;3.10;;;37.00;58.00;;;;;;5062020;28;20423;-66
2021/06/16 11:28:08;;;;;;;4.17;3.40;;;36.70;52.10;;;;;;5061972;28;20855;-65
2021/06/16 11:30:45;;;;;;;4.33;3.00;;;37.10;54.40;;;;;;5060495;28;20448;-65
2021/06/16 11:33:44;;;;;;;6.33;3.40;;;37.40;54.80;;;;;;5066963;28;20458;-66
2021/06/16 11:36:13;;;;;;;5.23;3.30;;;37.90;53.40;;;;;;5049504;28;20940;-66
2021/06/16 11:38:43;;;;;;;4.63;3.20;;;37.90;53.80;;;;;;5062204;28;20844;-65
2021/06/16 11:41:20;;;;;;;4.20;3.50;;;38.20;54.40;;;;;;5070123;28;21013;-66
2021/06/16 11:43:50;;;;;;;5.47;3.60;;;38.30;52.40;;;;;;5072300;28;20938;-66
2021/06/16 11:46:25;;;;;;;7.60;3.20;;;38.10;52.00;;;;;;5071721;28;20588;-66
2021/06/16 11:49:00;;;;;;;6.60;3.10;;;38.30;54.50;;;;;;5072418;28;20431;-65
2021/06/16 11:51:32;;;;;;;4.87;3.73;;;38.70;53.60;;;;;;5072111;28;20485;-66
2021/06/16 11:54:25;;;;;;;4.50;3.20;;;38.70;49.90;;;;;;5072319;28;20498;-65
2021/06/16 11:56:55;;;;;;;4.87;3.30;;;38.90;50.90;;;;;;5071748;28;20435;-66
2021/06/16 11:59:39;;;;;;;6.17;3.80;;;39.00;48.60;;;;;;5071726;28;20525;-66
2021/06/16 12:02:12;;;;;;;4.30;3.43;;;39.00;49.90;;;;;;5072487;28;20545;-66
2021/06/16 12:04:46;;;;;;;6.73;3.57;;;38.50;50.70;;;;;;5071920;28;20449;-65
2021/06/16 12:07:13;;;;;;;5.23;3.53;;;38.40;48.90;;;;;;5051240;28;20517;-66
2021/06/16 12:09:49;;;;;;;5.33;3.10;;;38.90;48.80;;;;;;5051320;28;20937;-68
2021/06/16 12:12:16;;;;;;;4.70;3.87;;;39.10;48.00;;;;;;5051811;28;20466;-66
2021/06/16 12:14:43;;;;;;;3.70;3.10;;;39.30;48.00;;;;;;5051175;28;20518;-66
2021/06/16 12:17:10;;;;;;;5.77;3.10;;;39.00;48.20;;;;;;5051543;28;20475;-66
2021/06/16 12:19:38;;;;;;;4.50;3.10;;;39.20;50.60;;;;;;5051216;28;20528;-66
2021/06/16 12:22:07;;;;;;;4.50;3.53;;;39.80;50.00;;;;;;5051699;28;20526;-67
2021/06/16 12:24:36;;;;;;;3.47;3.17;;;39.90;52.80;;;;;;5051480;28;20443;-66
2021/06/16 12:27:09;;;;;;;4.00;3.17;;;40.20;48.40;;;;;;5051318;28;20889;-66
2021/06/16 12:29:38;;;;;;;4.30;3.00;;;39.80;48.50;;;;;;5057643;28;20515;-66
2021/06/16 12:32:07;;;;;;;4.23;2.87;;;39.90;49.70;;;;;;5051579;28;20848;-65
2021/06/16 12:34:41;;;;;;;5.63;3.40;;;39.90;45.30;;;;;;5054328;28;20448;-65
2021/06/16 12:37:11;;;;;;;5.03;3.17;;;40.00;46.30;;;;;;5060611;28;20425;-65
2021/06/16 12:39:53;;;;;;;4.50;3.10;;;40.00;47.10;;;;;;5061176;28;20522;-65
2021/06/16 12:42:21;;;;;;;4.23;3.50;;;39.70;45.80;;;;;;5059548;28;20459;-66
2021/06/16 12:44:48;;;;;;;4.20;3.50;;;39.40;48.50;;;;;;5060545;28;20995;-66
2021/06/16 12:47:19;;;;;;;4.80;3.40;;;39.40;49.20;;;;;;5061162;28;20588;-65
2021/06/16 12:49:51;;;;;;;4.37;2.93;;;39.60;47.10;;;;;;5055572;28;20672;-65
2021/06/16 12:52:30;;;;;;;5.27;3.30;;;39.70;48.50;;;;;;5058040;28;20824;-65
2021/06/16 12:55:08;;;;;;;4.00;3.10;;;39.60;49.10;;;;;;5062806;28;20442;-66
2021/06/16 12:57:44;;;;;;;4.43;3.60;;;39.80;45.80;;;;;;5065895;28;20466;-65
2021/06/16 13:00:13;;;;;;;4.10;3.33;;;39.70;42.90;;;;;;5060289;28;20922;-66